createdAt,value
2022-10-08T00:02:01.455Z,3.20
2022-10-08T00:04:31.362Z,2.90
2022-10-08T00:06:59.699Z,3.17
2022-10-08T00:09:27.988Z,3.25
2022-10-08T00:11:57.824Z,3.10
2022-10-08T00:14:26.263Z,2.78
2022-10-08T00:16:54.513Z,2.80
2022-10-08T00:19:22.871Z,2.83
2022-10-08T00:21:56.954Z,3.13
2022-10-08T00:24:25.311Z,2.78
2022-10-08T00:26:53.736Z,3.00
2022-10-08T00:29:23.104Z,2.75
2022-10-08T00:31:52.018Z,2.92
2022-10-08T00:34:23.179Z,3.15
2022-10-08T00:36:54.653Z,2.80
2022-10-08T00:39:24.945Z,3.47
2022-10-08T00:41:56.189Z,3.10
2022-10-08T00:44:54.857Z,3.25
2022-10-08T00:47:39.433Z,3.38
2022-10-08T00:50:13.299Z,2.85
2022-10-08T00:52:45.748Z,3.10
2022-10-08T00:55:16.779Z,2.50
2022-10-08T00:57:45.392Z,3.05
2022-10-08T01:00:16.357Z,3.20
2022-10-08T01:02:45.235Z,3.15
2022-10-08T01:05:17.359Z,2.60
2022-10-08T01:07:52.782Z,2.70
2022-10-08T01:10:32.816Z,3.28
2022-10-08T01:13:17.387Z,2.45
2022-10-08T01:15:54.075Z,2.88
2022-10-08T01:18:29.126Z,2.45
2022-10-08T01:21:06.215Z,2.60
2022-10-08T01:24:09.125Z,3.03
2022-10-08T01:26:56.479Z,3.17
2022-10-08T01:29:31.077Z,3.28
2022-10-08T01:32:04.580Z,3.35
2022-10-08T01:34:37.671Z,2.72
2022-10-08T01:37:09.683Z,2.85
2022-10-08T01:39:40.684Z,3.05
2022-10-08T01:42:11.522Z,2.92
2022-10-08T01:44:47.346Z,2.80
2022-10-08T01:47:20.543Z,3.13
2022-10-08T01:49:52.626Z,3.10
2022-10-08T01:52:25.750Z,2.40
2022-10-08T01:54:58.969Z,3.00
2022-10-08T01:57:29.231Z,2.60
2022-10-08T02:00:07.009Z,3.13
2022-10-08T02:02:40.975Z,2.90
2022-10-08T02:05:10.116Z,3.20
2022-10-08T02:07:41.466Z,2.97
2022-10-08T02:10:12.958Z,3.00
2022-10-08T02:12:42.449Z,2.72
2022-10-08T02:15:16.692Z,2.95
2022-10-08T02:17:56.518Z,3.33
2022-10-08T02:20:32.407Z,2.80
2022-10-08T02:23:07.379Z,2.92
2022-10-08T02:25:39.740Z,3.25
2022-10-08T02:28:15.524Z,2.75
2022-10-08T02:30:52.821Z,3.28
2022-10-08T02:33:26.896Z,2.60
2022-10-08T02:35:58.303Z,3.47
2022-10-08T02:38:30.053Z,2.78
2022-10-08T02:41:01.223Z,2.95
2022-10-08T02:43:32.741Z,3.10
2022-10-08T02:46:07.850Z,3.00
2022-10-08T02:48:39.032Z,3.03
2022-10-08T02:51:11.434Z,3.08
2022-10-08T02:53:41.395Z,3.10
2022-10-08T02:56:16.077Z,3.60
2022-10-08T02:58:46.269Z,3.25
2022-10-08T03:01:19.728Z,2.95
2022-10-08T03:03:53.776Z,3.40
2022-10-08T03:06:22.807Z,2.83
2022-10-08T03:08:52.851Z,2.60
2022-10-08T03:11:21.233Z,2.80
2022-10-08T03:13:52.798Z,2.50
2022-10-08T03:16:24.200Z,2.85
2022-10-08T03:18:53.690Z,2.80
2022-10-08T03:21:22.443Z,2.88
2022-10-08T03:23:50.808Z,3.30
2022-10-08T03:26:19.230Z,2.97
2022-10-08T03:28:47.534Z,3.00
2022-10-08T03:31:16.007Z,3.50
2022-10-08T03:33:45.794Z,2.75
2022-10-08T03:36:14.017Z,3.03
2022-10-08T03:38:42.309Z,3.17
2022-10-08T03:41:10.642Z,3.70
2022-10-08T03:43:38.928Z,3.10
2022-10-08T03:46:07.990Z,3.20
2022-10-08T03:48:36.843Z,3.70
2022-10-08T03:51:09.441Z,3.85
2022-10-08T03:53:39.756Z,3.75
2022-10-08T03:56:09.854Z,3.90
2022-10-08T03:58:38.140Z,4.13
2022-10-08T04:01:08.914Z,4.10
2022-10-08T04:03:37.331Z,4.38
2022-10-08T04:06:07.530Z,4.03
2022-10-08T04:08:36.301Z,4.38
2022-10-08T04:11:05.448Z,4.15
2022-10-08T04:13:34.144Z,4.93
2022-10-08T04:16:03.565Z,4.57
2022-10-08T04:18:32.114Z,4.43
2022-10-08T04:21:00.982Z,4.70
2022-10-08T04:23:32.240Z,4.68
2022-10-08T04:26:00.533Z,4.65
2022-10-08T04:28:29.465Z,4.00
2022-10-08T04:30:59.895Z,4.93
2022-10-08T04:33:29.358Z,4.45
2022-10-08T04:36:00.248Z,4.65
2022-10-08T04:38:30.362Z,4.68
2022-10-08T04:41:06.605Z,5.03
2022-10-08T04:43:35.155Z,4.70
2022-10-08T04:46:03.829Z,5.13
2022-10-08T04:48:32.187Z,4.45
2022-10-08T04:51:02.084Z,5.38
2022-10-08T04:53:31.749Z,4.70
2022-10-08T04:56:09.831Z,4.75
2022-10-08T04:58:41.103Z,5.05
2022-10-08T05:01:11.380Z,5.10
2022-10-08T05:03:40.969Z,5.10
2022-10-08T05:06:09.778Z,4.88
2022-10-08T05:08:39.918Z,5.30
2022-10-08T05:11:08.547Z,5.60
2022-10-08T05:13:36.996Z,5.57
2022-10-08T05:16:06.528Z,4.70
2022-10-08T05:18:35.168Z,5.18
2022-10-08T05:21:04.878Z,4.93
2022-10-08T05:23:33.495Z,5.00
2022-10-08T05:26:03.568Z,4.82
2022-10-08T05:28:32.045Z,5.25
2022-10-08T05:31:03.513Z,4.97
2022-10-08T05:33:31.802Z,5.32
2022-10-08T05:36:04.484Z,5.20
2022-10-08T05:38:34.899Z,4.82
2022-10-08T05:41:12.887Z,5.10
2022-10-08T05:43:41.805Z,4.97
2022-10-08T05:46:10.337Z,5.15
2022-10-08T05:48:38.941Z,4.95
2022-10-08T05:51:08.517Z,4.97
2022-10-08T05:53:48.658Z,4.75
2022-10-08T05:56:20.226Z,4.55
2022-10-08T05:58:49.218Z,4.70
2022-10-08T06:01:20.272Z,5.07
2022-10-08T06:03:50.482Z,4.95
2022-10-08T06:06:18.563Z,5.28
2022-10-08T06:08:47.126Z,4.90
2022-10-08T06:11:15.179Z,5.57
2022-10-08T06:13:44.562Z,4.82
2022-10-08T06:16:13.079Z,4.95
2022-10-08T06:18:42.871Z,5.30
2022-10-08T06:21:13.924Z,5.63
2022-10-08T06:23:47.487Z,4.90
2022-10-08T06:26:15.716Z,5.13
2022-10-08T06:28:46.298Z,4.90
2022-10-08T06:31:14.861Z,5.43
2022-10-08T06:33:42.993Z,5.28
2022-10-08T06:36:16.027Z,5.05
2022-10-08T06:38:44.121Z,5.22
2022-10-08T06:41:12.238Z,5.13
2022-10-08T06:43:40.334Z,4.90
2022-10-08T06:46:09.727Z,5.90
2022-10-08T06:48:37.770Z,4.70
2022-10-08T06:51:07.482Z,4.32
2022-10-08T06:53:36.165Z,4.38
2022-10-08T06:56:06.132Z,4.20
2022-10-08T06:58:36.346Z,3.78
2022-10-08T07:01:07.149Z,4.57
2022-10-08T07:03:37.594Z,3.95
2022-10-08T07:06:09.711Z,3.80
2022-10-08T07:08:38.178Z,3.60
2022-10-08T07:11:07.698Z,3.75
2022-10-08T07:13:36.474Z,3.47
2022-10-08T07:16:05.747Z,3.10
2022-10-08T07:18:34.838Z,2.80
2022-10-08T07:21:04.417Z,2.90
2022-10-08T07:23:32.678Z,3.17
2022-10-08T07:26:02.400Z,3.08
2022-10-08T07:28:33.121Z,2.90
2022-10-08T07:31:05.620Z,2.33
2022-10-08T07:33:33.802Z,2.90
2022-10-08T07:36:12.326Z,2.80
2022-10-08T07:38:40.661Z,2.58
2022-10-08T07:41:09.851Z,2.88
2022-10-08T07:43:41.148Z,3.35
2022-10-08T07:46:10.382Z,2.60
2022-10-08T07:48:38.592Z,2.78
2022-10-08T07:51:13.461Z,2.33
2022-10-08T07:53:42.370Z,2.72
2022-10-08T07:56:12.227Z,2.47
2022-10-08T07:58:40.636Z,2.15
2022-10-08T08:01:12.539Z,2.40
2022-10-08T08:03:40.631Z,1.90
2022-10-08T08:06:12.598Z,2.17
2022-10-08T08:08:42.469Z,2.42
2022-10-08T08:11:12.423Z,2.25
2022-10-08T08:13:41.747Z,2.45
2022-10-08T08:16:11.971Z,1.83
2022-10-08T08:18:42.629Z,1.65
2022-10-08T08:21:14.047Z,1.45
2022-10-08T08:23:44.040Z,1.20
2022-10-08T08:26:14.063Z,1.40
2022-10-08T08:28:42.827Z,1.63
2022-10-08T08:31:12.845Z,1.40
2022-10-08T08:33:41.607Z,1.60
2022-10-08T08:36:10.054Z,1.55
2022-10-08T08:38:40.162Z,1.35
2022-10-08T08:41:20.535Z,1.77
2022-10-08T08:43:49.063Z,1.55
2022-10-08T08:46:22.272Z,1.58
2022-10-08T08:48:53.580Z,1.77
2022-10-08T08:51:21.666Z,1.20
2022-10-08T08:53:51.131Z,1.55
2022-10-08T08:56:23.207Z,1.75
2022-10-08T08:58:58.599Z,1.75
2022-10-08T09:01:32.493Z,1.85
2022-10-08T09:04:07.375Z,1.65
2022-10-08T09:06:37.424Z,1.98
2022-10-08T09:09:25.494Z,1.50
2022-10-08T09:11:53.906Z,1.80
2022-10-08T09:14:35.444Z,1.65
2022-10-08T09:17:12.263Z,1.50
2022-10-08T09:19:41.051Z,1.70
2022-10-08T09:22:19.137Z,1.70
2022-10-08T09:24:51.087Z,1.65
2022-10-08T09:27:19.232Z,1.50
2022-10-08T09:29:47.498Z,2.10
2022-10-08T09:32:18.303Z,1.48
2022-10-08T09:34:48.347Z,1.52
2022-10-08T09:37:26.975Z,1.25
2022-10-08T09:40:19.327Z,2.00
2022-10-08T09:43:11.326Z,1.73
2022-10-08T09:45:44.937Z,1.35
2022-10-08T09:48:19.016Z,1.50
2022-10-08T09:50:58.145Z,1.58
2022-10-08T09:53:30.123Z,1.70
2022-10-08T09:56:02.667Z,1.63
2022-10-08T09:58:33.795Z,1.50
2022-10-08T10:01:08.520Z,1.25
2022-10-08T10:03:38.203Z,1.23
2022-10-08T10:06:06.766Z,1.40
2022-10-08T10:08:54.273Z,1.30
2022-10-08T10:11:30.534Z,1.42
2022-10-08T10:14:00.586Z,1.08
2022-10-08T10:16:34.184Z,1.50
2022-10-08T10:19:07.190Z,1.15
2022-10-08T10:21:40.521Z,1.42
2022-10-08T10:24:45.755Z,1.60
2022-10-08T10:27:18.625Z,1.40
2022-10-08T10:29:54.901Z,1.38
2022-10-08T10:32:31.825Z,1.50
2022-10-08T10:35:06.134Z,1.38
2022-10-08T10:37:45.005Z,1.25
2022-10-08T10:40:33.022Z,1.52
2022-10-08T10:43:44.201Z,1.40
2022-10-08T10:46:27.972Z,1.38
2022-10-08T10:48:56.360Z,2.10
2022-10-08T10:51:36.175Z,1.33
2022-10-08T10:54:21.134Z,1.65
2022-10-08T10:56:57.066Z,1.88
2022-10-08T10:59:37.180Z,1.52
2022-10-08T11:02:17.391Z,1.80
2022-10-08T11:04:52.749Z,1.83
2022-10-08T11:07:33.764Z,1.75
2022-10-08T11:10:07.132Z,1.50
2022-10-08T11:12:44.256Z,2.20
2022-10-08T11:15:25.362Z,2.03
2022-10-08T11:18:08.899Z,2.05
2022-10-08T11:20:52.633Z,1.90
2022-10-08T11:23:37.166Z,2.50
2022-10-08T11:26:22.481Z,1.85
2022-10-08T11:29:01.729Z,1.83
2022-10-08T11:31:37.751Z,1.90
2022-10-08T11:34:07.122Z,1.65
2022-10-08T11:36:40.056Z,1.67
2022-10-08T11:39:17.139Z,2.50
2022-10-08T11:41:53.615Z,2.22
2022-10-08T11:44:22.238Z,1.67
2022-10-08T11:46:51.716Z,1.80
2022-10-08T11:49:55.194Z,1.75
2022-10-08T11:52:23.295Z,1.73
2022-10-08T11:54:55.780Z,1.92
2022-10-08T11:57:55.534Z,1.98
2022-10-08T12:00:33.498Z,1.63
2022-10-08T12:03:06.219Z,1.65
2022-10-08T12:05:47.995Z,2.03
2022-10-08T12:08:50.171Z,1.63
2022-10-08T12:11:50.226Z,2.13
2022-10-08T12:14:47.430Z,2.08
2022-10-08T12:17:16.475Z,1.70
2022-10-08T12:20:18.298Z,2.35
2022-10-08T12:23:05.035Z,1.98
2022-10-08T12:25:42.632Z,1.67
2022-10-08T12:28:39.550Z,2.30
2022-10-08T12:31:21.065Z,1.73
2022-10-08T12:34:01.200Z,2.03
2022-10-08T12:36:40.567Z,1.90
2022-10-08T12:39:17.739Z,1.88
2022-10-08T12:41:54.958Z,1.80
2022-10-08T12:44:40.333Z,2.10
2022-10-08T12:47:22.079Z,1.50
2022-10-08T12:49:57.341Z,2.05
2022-10-08T12:52:27.879Z,2.05
2022-10-08T12:54:58.032Z,1.58
2022-10-08T12:57:30.469Z,1.98
2022-10-08T13:00:00.306Z,1.85
2022-10-08T13:02:38.279Z,1.77
2022-10-08T13:05:08.300Z,2.33
2022-10-08T13:07:38.588Z,1.98
2022-10-08T13:10:19.720Z,1.88
2022-10-08T13:13:00.713Z,1.88
2022-10-08T13:15:30.763Z,1.63
2022-10-08T13:17:59.091Z,1.63
2022-10-08T13:20:27.833Z,2.00
2022-10-08T13:22:57.451Z,1.80
2022-10-08T13:25:34.832Z,1.80
2022-10-08T13:28:13.602Z,1.80
2022-10-08T13:30:43.890Z,1.98
2022-10-08T13:33:17.044Z,1.67
2022-10-08T13:35:51.389Z,2.38
2022-10-08T13:38:24.782Z,2.00
2022-10-08T13:40:55.503Z,1.60
2022-10-08T13:43:23.899Z,1.90
2022-10-08T13:45:52.391Z,2.13
2022-10-08T13:48:20.660Z,2.42
2022-10-08T13:50:51.252Z,1.98
2022-10-08T13:53:23.999Z,3.25
2022-10-08T13:55:52.591Z,2.00
2022-10-08T13:58:21.958Z,5.25
2022-10-08T14:00:50.594Z,5.00
2022-10-08T14:03:18.958Z,2.05
2022-10-08T14:05:49.199Z,5.18
2022-10-08T14:08:19.644Z,3.50
2022-10-08T14:10:49.468Z,2.13
2022-10-08T14:13:18.032Z,3.95
2022-10-08T14:15:46.253Z,1.98
2022-10-08T14:18:14.589Z,2.88
2022-10-08T14:20:43.103Z,4.10
2022-10-08T14:23:13.493Z,2.40
2022-10-08T14:25:41.797Z,2.30
2022-10-08T14:28:11.491Z,2.47
2022-10-08T14:30:39.819Z,3.28
2022-10-08T14:33:11.384Z,2.28
2022-10-08T14:35:40.227Z,2.17
2022-10-08T14:38:08.850Z,4.45
2022-10-08T14:40:37.295Z,2.75
2022-10-08T14:43:05.528Z,3.40
2022-10-08T14:45:35.348Z,1.98
2022-10-08T14:48:04.059Z,2.30
2022-10-08T14:50:32.342Z,2.20
2022-10-08T14:53:00.611Z,1.85
2022-10-08T14:55:29.027Z,4.00
2022-10-08T14:57:57.281Z,1.70
2022-10-08T15:00:25.563Z,1.48
2022-10-08T15:02:55.208Z,1.20
2022-10-08T15:05:23.523Z,4.05
2022-10-08T15:07:52.039Z,1.30
2022-10-08T15:10:20.440Z,1.50
2022-10-08T15:12:49.055Z,2.10
2022-10-08T15:15:19.837Z,3.67
2022-10-08T15:17:48.575Z,1.98
2022-10-08T15:20:18.551Z,1.95
2022-10-08T15:22:47.068Z,2.95
2022-10-08T15:25:15.851Z,2.38
2022-10-08T15:27:45.027Z,1.90
2022-10-08T15:30:14.199Z,2.60
2022-10-08T15:32:42.476Z,1.98
2022-10-08T15:35:11.445Z,2.10
2022-10-08T15:37:41.158Z,2.60
2022-10-08T15:40:10.316Z,2.15
2022-10-08T15:42:38.584Z,2.63
2022-10-08T15:45:07.750Z,3.53
2022-10-08T15:47:36.020Z,4.38
2022-10-08T15:50:04.887Z,3.60
2022-10-08T15:52:34.548Z,2.67
2022-10-08T15:55:04.216Z,2.30
2022-10-08T15:57:32.473Z,2.10
2022-10-08T16:00:00.744Z,1.80
2022-10-08T16:02:29.083Z,2.45
2022-10-08T16:04:57.510Z,1.92
2022-10-08T16:07:25.683Z,2.20
2022-10-08T16:09:53.912Z,1.98
2022-10-08T16:12:23.587Z,2.35
2022-10-08T16:14:51.865Z,1.90
2022-10-08T16:17:20.381Z,2.35
2022-10-08T16:19:48.688Z,3.50
2022-10-08T16:22:17.359Z,5.03
2022-10-08T16:24:45.592Z,4.22
2022-10-08T16:27:13.816Z,2.30
2022-10-08T16:29:43.519Z,2.92
2022-10-08T16:32:12.968Z,2.35
2022-10-08T16:34:44.862Z,2.20
2022-10-08T16:37:13.610Z,5.63
2022-10-08T16:39:41.903Z,9.27
2022-10-08T16:42:10.212Z,5.75
2022-10-08T16:44:38.484Z,13.65
2022-10-08T16:47:08.705Z,11.88
2022-10-08T16:49:36.950Z,9.13
2022-10-08T16:52:08.265Z,8.63
2022-10-08T16:54:36.743Z,13.10
2022-10-08T16:57:05.084Z,6.55
2022-10-08T16:59:33.451Z,4.22
2022-10-08T17:02:02.539Z,5.75
2022-10-08T17:04:39.054Z,4.20
2022-10-08T17:07:08.133Z,2.85
2022-10-08T17:09:37.045Z,4.07
2022-10-08T17:12:05.413Z,2.45
2022-10-08T17:14:34.483Z,2.95
2022-10-08T17:17:02.795Z,2.90
2022-10-08T17:19:32.905Z,3.25
2022-10-08T17:22:01.188Z,3.00
2022-10-08T17:24:29.578Z,2.40
2022-10-08T17:26:58.040Z,2.38
2022-10-08T17:29:26.305Z,2.33
2022-10-08T17:31:54.727Z,2.53
2022-10-08T17:34:23.135Z,3.00
2022-10-08T17:36:52.833Z,2.20
2022-10-08T17:39:21.242Z,2.60
2022-10-08T17:41:49.460Z,2.15
2022-10-08T17:44:17.941Z,2.30
2022-10-08T17:46:47.891Z,2.20
2022-10-08T17:49:18.050Z,2.40
2022-10-08T17:51:47.069Z,2.47
2022-10-08T17:54:19.120Z,2.25
2022-10-08T17:57:10.781Z,2.83
2022-10-08T17:59:54.041Z,2.50
2022-10-08T18:02:43.706Z,2.97
2022-10-08T18:05:12.068Z,2.03
2022-10-08T18:07:40.383Z,2.88
2022-10-08T18:10:11.397Z,1.90
2022-10-08T18:12:39.715Z,2.67
2022-10-08T18:15:09.245Z,1.98
2022-10-08T18:17:37.547Z,2.63
2022-10-08T18:20:06.826Z,2.83
2022-10-08T18:22:35.280Z,3.80
2022-10-08T18:25:04.996Z,3.47
2022-10-08T18:27:34.843Z,3.15
2022-10-08T18:30:03.384Z,2.92
2022-10-08T18:32:31.821Z,2.92
2022-10-08T18:35:00.344Z,2.67
2022-10-08T18:37:28.632Z,3.25
2022-10-08T18:39:57.136Z,2.65
2022-10-08T18:42:25.442Z,2.58
2022-10-08T18:44:55.117Z,2.70
2022-10-08T18:47:23.369Z,3.35
2022-10-08T18:49:51.741Z,3.88
2022-10-08T18:52:21.842Z,3.05
2022-10-08T18:54:50.197Z,3.05
2022-10-08T18:57:18.445Z,2.53
2022-10-08T18:59:46.802Z,2.85
2022-10-08T19:02:16.586Z,2.33
2022-10-08T19:04:45.110Z,2.20
2022-10-08T19:07:13.409Z,2.08
2022-10-08T19:09:41.725Z,2.50
2022-10-08T19:12:10.033Z,2.10
2022-10-08T19:14:38.262Z,2.17
2022-10-08T19:17:06.686Z,2.20
2022-10-08T19:19:36.364Z,2.40
2022-10-08T19:22:04.612Z,2.42
2022-10-08T19:24:35.493Z,2.05
2022-10-08T19:27:05.713Z,2.35
2022-10-08T19:29:36.006Z,2.00
2022-10-08T19:32:04.651Z,2.88
2022-10-08T19:34:33.508Z,2.95
2022-10-08T19:37:03.209Z,2.67
2022-10-08T19:39:33.616Z,3.38
2022-10-08T19:42:01.961Z,2.83
2022-10-08T19:44:30.154Z,3.08
2022-10-08T19:46:58.587Z,3.70
2022-10-08T19:49:26.813Z,4.20
2022-10-08T19:51:55.085Z,3.00
2022-10-08T19:54:25.670Z,2.60
2022-10-08T19:56:54.018Z,2.80
2022-10-08T19:59:22.484Z,2.70
2022-10-08T20:01:50.741Z,3.20
2022-10-08T20:04:19.053Z,3.13
2022-10-08T20:06:47.384Z,2.88
2022-10-08T20:09:15.987Z,2.90
2022-10-08T20:11:46.534Z,2.80
2022-10-08T20:14:15.891Z,3.38
2022-10-08T20:16:45.225Z,3.10
2022-10-08T20:19:20.187Z,3.20
2022-10-08T20:21:50.650Z,3.53
2022-10-08T20:24:19.834Z,2.92
2022-10-08T20:26:50.241Z,3.67
2022-10-08T20:29:21.196Z,4.40
2022-10-08T20:31:51.225Z,4.18
2022-10-08T20:34:21.215Z,4.80
2022-10-08T20:36:49.995Z,4.20
2022-10-08T20:39:20.027Z,3.95
2022-10-08T20:41:49.945Z,4.05
2022-10-08T20:44:18.750Z,3.50
2022-10-08T20:46:47.704Z,3.78
2022-10-08T20:49:16.118Z,3.38
2022-10-08T20:51:44.861Z,3.45
2022-10-08T20:54:22.944Z,3.80
2022-10-08T20:57:19.536Z,4.00
2022-10-08T21:00:00.611Z,4.15
2022-10-08T21:02:41.021Z,3.63
2022-10-08T21:05:43.623Z,3.63
2022-10-08T21:08:29.279Z,3.47
2022-10-08T21:11:21.113Z,3.47
2022-10-08T21:13:56.298Z,3.55
2022-10-08T21:16:37.401Z,3.35
2022-10-08T21:19:19.853Z,3.53
2022-10-08T21:22:02.646Z,3.40
2022-10-08T21:24:46.920Z,3.78
2022-10-08T21:27:24.411Z,2.85
2022-10-08T21:29:59.112Z,3.42
2022-10-08T21:32:36.911Z,3.22
2022-10-08T21:35:14.434Z,3.67
2022-10-08T21:37:59.984Z,3.60
2022-10-08T21:40:36.272Z,3.05
2022-10-08T21:43:18.960Z,3.25
2022-10-08T21:46:05.765Z,3.28
2022-10-08T21:48:51.914Z,3.20
2022-10-08T21:51:35.038Z,3.15
2022-10-08T21:54:11.711Z,3.10
2022-10-08T21:56:49.455Z,3.08
2022-10-08T21:59:27.410Z,2.90
2022-10-08T22:01:59.170Z,2.78
2022-10-08T22:04:45.621Z,3.08
2022-10-08T22:07:28.257Z,2.88
2022-10-08T22:10:00.858Z,3.28
2022-10-08T22:12:33.993Z,3.58
2022-10-08T22:15:15.887Z,2.75
2022-10-08T22:17:52.952Z,3.45
2022-10-08T22:20:48.481Z,3.28
2022-10-08T22:23:34.531Z,3.10
2022-10-08T22:26:09.566Z,2.97
2022-10-08T22:28:45.863Z,3.28
2022-10-08T22:31:23.057Z,2.53
2022-10-08T22:33:57.782Z,2.78
2022-10-08T22:36:39.983Z,3.40
2022-10-08T22:39:12.048Z,2.90
2022-10-08T22:41:46.159Z,3.25
2022-10-08T22:44:16.885Z,3.22
2022-10-08T22:46:50.883Z,3.28
2022-10-08T22:49:27.829Z,3.25
2022-10-08T22:52:03.771Z,3.20
2022-10-08T22:54:43.835Z,3.70
2022-10-08T22:57:22.646Z,3.67
2022-10-08T23:00:05.646Z,3.72
2022-10-08T23:02:48.769Z,4.05
2022-10-08T23:05:38.472Z,3.60
2022-10-08T23:08:17.762Z,3.60
2022-10-08T23:11:10.510Z,3.08
2022-10-08T23:13:46.060Z,3.50
2022-10-08T23:16:22.363Z,3.75
2022-10-08T23:19:05.305Z,3.85
2022-10-08T23:21:44.355Z,3.10
2022-10-08T23:24:44.688Z,3.58
2022-10-08T23:27:19.113Z,3.20
2022-10-08T23:30:00.231Z,3.10
2022-10-08T23:32:42.236Z,3.17
2022-10-08T23:35:41.229Z,3.63
2022-10-08T23:38:30.651Z,3.20
2022-10-08T23:41:11.436Z,3.13
2022-10-08T23:43:47.527Z,2.90
2022-10-08T23:46:19.439Z,2.83
2022-10-08T23:49:00.622Z,2.80
2022-10-08T23:51:37.557Z,2.80
2022-10-08T23:54:28.706Z,3.00
2022-10-08T23:56:57.193Z,3.30
2022-10-08T23:59:25.178Z,3.05
